Weather reports worldwide

Advertisment
Monte Settepani, Italy (16111): temperature & dewpoint: 09.12.2019 19:00:00 - 15.12.2019 19:00:00 (CET)Monte Settepani, Italy (16111): wind speed: 09.12.2019 19:00:00 - 15.12.2019 19:00:00 (CET)Monte Settepani, Italy (16111): wind direction: 09.12.2019 19:00:00 - 15.12.2019 19:00:00 (CET)
Date & Time tt [°C] td [°C] ff [km/h] ff [kn] dd
15.12.2019 19:00:00 - - - - -
15.12.2019 18:00:00 5,2 5,2 13 7 S
15.12.2019 17:00:00 5,5 5,5 13 7 S
15.12.2019 16:00:00 5,6 5,6 15 8 S
15.12.2019 15:00:00 5,2 5,2 15 8 S
15.12.2019 14:00:00 5,0 5,0 18 10 SSW
15.12.2019 13:00:00 4,7 4,7 18 10 SSW
15.12.2019 12:00:00 5,1 5,1 15 8 S
15.12.2019 11:00:00 4,9 4,9 15 8 S
15.12.2019 10:00:00 4,6 4,6 15 8 SSE
15.12.2019 09:00:00 4,3 4,3 18 10 SSW
15.12.2019 08:00:00 3,7 3,7 15 8 SSW
15.12.2019 07:00:00 3,6 3,6 16 9 SSW
15.12.2019 06:00:00 4,4 4,4 11 6 S
15.12.2019 05:00:00 4,6 4,6 13 7 S
15.12.2019 04:00:00 4,1 4,1 4 2 S
15.12.2019 03:00:00 4,6 4,6 5 3 S
15.12.2019 02:00:00 4,8 4,8 13 7 S
15.12.2019 01:00:00 4,5 4,5 11 6 SSE
15.12.2019 00:00:00 4,5 4,5 11 6 S
14.12.2019 23:00:00 9,8 -0,5 9 5 SW
14.12.2019 22:00:00 11,1 -1,4 4 2 SW
14.12.2019 21:00:00 - - - - -
14.12.2019 20:00:00 9,7 -0,9 11 6 S
14.12.2019 19:00:00 9,7 -1,2 8 4 S
14.12.2019 18:00:00 10,8 -1,1 11 6 S
14.12.2019 17:00:00 11,5 -1,8 11 6 S
14.12.2019 16:00:00 12,9 0,2 9 5 SW
14.12.2019 15:00:00 13,1 0,0 9 5 SSW
14.12.2019 14:00:00 12,4 2,2 11 6 SSW
14.12.2019 13:00:00 11,4 4,3 8 4 SW
14.12.2019 12:00:00 10,4 1,7 11 6 NW
14.12.2019 11:00:00 10,4 0,0 13 7 NNW
14.12.2019 10:00:00 9,9 -0,1 11 6 S
14.12.2019 09:00:00 9,0 -0,2 8 4 NW
14.12.2019 08:00:00 8,1 0,2 11 6 W
14.12.2019 07:00:00 7,4 -1,4 13 7 WSW
14.12.2019 06:00:00 6,6 -1,7 15 8 WSW
14.12.2019 05:00:00 6,3 -2,2 15 8 SW
14.12.2019 04:00:00 6,3 -1,2 11 6 WSW
14.12.2019 03:00:00 4,3 -2,9 21 11 SW
14.12.2019 02:00:00 3,9 -3,5 21 11 SW
14.12.2019 01:00:00 2,4 -4,0 18 10 WSW
14.12.2019 00:00:00 1,7 -4,7 13 7 N
13.12.2019 23:00:00 0,7 -5,2 15 8 W
13.12.2019 22:00:00 0,3 -4,6 9 5 NE
13.12.2019 21:00:00 -0,8 -4,0 9 5 NW
13.12.2019 20:00:00 -1,5 -3,6 11 6 NW
13.12.2019 19:00:00 -2,6 -2,7 9 5 WSW
13.12.2019 18:00:00 -3,1 -3,1 9 5 ENE
13.12.2019 17:00:00 -3,2 -3,2 8 4 ESE
13.12.2019 16:00:00 -3,1 -3,1 15 8 NNE
13.12.2019 15:00:00 -4,6 -4,6 15 8 W
13.12.2019 14:00:00 -4,6 -4,6 13 7 ESE
13.12.2019 13:00:00 -4,8 -4,8 16 9 ENE
13.12.2019 12:00:00 -6,0 -6,0 0 0 N
13.12.2019 11:00:00 -4,5 -4,5 0 0 N
13.12.2019 10:00:00 -2,1 -2,1 0 0 N
13.12.2019 09:00:00 -1,3 -1,3 15 8 SSW
13.12.2019 08:00:00 -0,8 -0,8 18 10 SSW
13.12.2019 07:00:00 -1,7 -1,7 15 8 SSW
13.12.2019 06:00:00 -0,9 -0,9 13 7 SSW
13.12.2019 05:00:00 -1,2 -1,2 13 7 SSW
13.12.2019 04:00:00 -0,9 -0,9 16 9 SSW
13.12.2019 03:00:00 -0,6 -0,6 0 0 N
13.12.2019 02:00:00 -0,5 -0,5 11 6 SSW
13.12.2019 01:00:00 -0,6 -0,6 16 9 SSW
13.12.2019 00:00:00 -0,5 -0,5 21 11 SSW
12.12.2019 23:00:00 -0,3 -0,3 16 9 S
12.12.2019 22:00:00 -0,3 -0,3 24 13 S
12.12.2019 21:00:00 -0,3 -0,3 28 15 SSW
12.12.2019 20:00:00 -0,3 -0,3 24 13 SSW
12.12.2019 19:00:00 -0,7 -0,7 16 9 SSW
12.12.2019 18:00:00 -0,9 -0,9 13 7 SW
12.12.2019 17:00:00 -0,5 -0,6 8 4 SW
12.12.2019 16:00:00 1,4 1,0 5 3 SSW
12.12.2019 15:00:00 2,3 -8,3 8 4 SSW
12.12.2019 14:00:00 1,9 -4,1 8 4 SSW
12.12.2019 13:00:00 0,5 -3,7 5 3 WNW
12.12.2019 12:00:00 -1,2 -2,8 9 5 SW
12.12.2019 11:00:00 -1,7 -2,4 11 6 E
12.12.2019 10:00:00 -2,6 -2,6 9 5 SSE
12.12.2019 09:00:00 -3,2 -3,2 9 5 W
12.12.2019 08:00:00 -2,1 -2,1 5 3 N
12.12.2019 07:00:00 -2,2 -2,2 9 5 E
12.12.2019 06:00:00 -2,4 -2,4 18 10 N
12.12.2019 05:00:00 -3,0 -3,0 24 13 N
12.12.2019 04:00:00 -3,1 -3,1 22 12 N
12.12.2019 03:00:00 -3,7 -3,7 11 6 E
12.12.2019 02:00:00 -4,0 -4,0 26 14 NNW
12.12.2019 01:00:00 -1,9 -1,9 31 17 NNW
12.12.2019 00:00:00 -0,9 -0,9 24 13 N
11.12.2019 23:00:00 0,0 0,0 15 8 NW
11.12.2019 22:00:00 -1,4 -1,4 15 8 WNW
11.12.2019 21:00:00 -0,3 -0,3 11 6 W
11.12.2019 20:00:00 -2,4 -2,5 15 8 WNW
11.12.2019 19:00:00 -0,3 -0,3 4 2 SE
11.12.2019 18:00:00 -0,2 -0,5 5 3 SSE
11.12.2019 17:00:00 0,1 -1,8 13 7 S
11.12.2019 16:00:00 0,6 -5,7 8 4 S
11.12.2019 15:00:00 0,9 -5,0 5 3 S
11.12.2019 14:00:00 1,9 -6,5 5 3 SSW
11.12.2019 13:00:00 1,9 -5,8 2 1 WSW
11.12.2019 12:00:00 2,1 -7,9 2 1 NE
11.12.2019 11:00:00 1,6 -9,8 8 4 NNW
11.12.2019 10:00:00 2,0 -10,0 5 3 N
11.12.2019 09:00:00 1,7 -11,6 5 3 NW
11.12.2019 08:00:00 1,3 -12,6 15 8 NW
11.12.2019 07:00:00 1,3 -12,3 15 8 NW
11.12.2019 06:00:00 -0,1 -9,1 11 6 N
11.12.2019 05:00:00 -0,3 -8,8 13 7 N
11.12.2019 04:00:00 -0,3 -8,4 16 9 N
11.12.2019 03:00:00 0,2 -9,6 15 8 N
11.12.2019 02:00:00 0,0 -10,1 18 10 N
11.12.2019 01:00:00 0,2 -10,8 21 11 N
11.12.2019 00:00:00 0,8 -10,8 21 11 N
10.12.2019 23:00:00 0,5 -9,1 11 6 N
10.12.2019 22:00:00 1,3 -9,2 16 9 N
10.12.2019 21:00:00 1,5 -8,2 13 7 NNW
10.12.2019 20:00:00 1,2 -9,0 8 4 W
10.12.2019 19:00:00 1,3 -9,5 28 15 N
10.12.2019 18:00:00 0,9 -8,7 29 16 N
10.12.2019 17:00:00 - - - - -
10.12.2019 16:00:00 1,8 -6,6 34 18 N
10.12.2019 15:00:00 2,0 -5,7 31 17 N
10.12.2019 14:00:00 2,4 -8,2 24 13 N
10.12.2019 13:00:00 2,7 -7,3 15 8 N
10.12.2019 12:00:00 2,4 -6,3 22 12 N
10.12.2019 11:00:00 2,1 -6,6 18 10 N
10.12.2019 10:00:00 1,9 -6,5 28 15 N
10.12.2019 09:00:00 1,6 -4,8 31 17 N
10.12.2019 08:00:00 1,0 -5,1 31 17 N
10.12.2019 07:00:00 0,9 -5,2 21 11 N
10.12.2019 06:00:00 1,9 -5,6 42 23 N
10.12.2019 05:00:00 2,0 -6,2 29 16 N
10.12.2019 04:00:00 1,9 -5,6 24 13 SE
10.12.2019 03:00:00 1,8 -4,6 18 10 SW
10.12.2019 02:00:00 1,8 -3,2 21 11 S
10.12.2019 01:00:00 1,8 -2,6 22 12 N
10.12.2019 00:00:00 2,1 -2,7 21 11 SSW
09.12.2019 23:00:00 1,5 -2,0 9 5 N
09.12.2019 22:00:00 2,0 -1,8 11 6 NNW
09.12.2019 21:00:00 2,4 -3,2 11 6 S
09.12.2019 20:00:00 3,4 -4,2 13 7 NNE
09.12.2019 19:00:00 3,7 -3,4 8 4 WSW

tt = temperature
td = dewpoint
ff = wind speed
dd = wind direction

Next stations